Time;durP1;ratioP1;P1;durP2;ratioP2;P2;SDS_P1;SDS_P2;PMS_P1;PMS_P2;Temp;Humidity;BMP_temperature;BMP_pressure;BME280_temperature;BME280_humidity;BME280_pressure;Samples;Min_cycle;Max_cycle;Signal;HPM_P1;HPM_P2
2022/12/26 07:29:32;;;;;;;12.37;7.78;;;;;;;-0.37;100.00;101099.47;1732546;81;21172;-40
2022/12/26 07:31:59;;;;;;;12.03;7.65;;;;;;;-0.44;100.00;101094.38;1739509;80;21032;-39
2022/12/26 07:34:26;;;;;;;13.15;7.47;;;;;;;-0.49;100.00;101090.66;1725049;82;21044;-39
2022/12/26 07:36:53;;;;;;;12.68;8.38;;;;;;;-0.52;100.00;101088.30;1741773;80;21073;-48
2022/12/26 07:39:19;;;;;;;13.75;7.75;;;;;;;-0.54;100.00;101086.94;1731400;81;21881;-48
2022/12/26 07:41:56;;;;;;;11.38;7.65;;;;;;;-0.51;100.00;101093.95;1736881;81;21097;-48
2022/12/26 07:44:24;;;;;;;9.60;6.45;;;;;;;-0.48;100.00;101084.71;1715957;82;21066;-40
2022/12/26 07:46:50;;;;;;;9.55;7.17;;;;;;;-0.45;100.00;101088.76;1732900;81;21097;-48
2022/12/26 07:49:17;;;;;;;9.50;5.85;;;;;;;-0.40;100.00;101091.59;1724762;81;20992;-48
2022/12/26 07:51:43;;;;;;;13.80;7.15;;;;;;;-0.37;100.00;101092.63;1757172;80;21554;-39
2022/12/26 07:54:10;;;;;;;8.08;5.83;;;;;;;-0.36;100.00;101090.55;1725446;82;21024;-39
2022/12/26 07:56:37;;;;;;;12.10;6.65;;;;;;;-0.34;100.00;101091.54;1743987;80;21133;-48
2022/12/26 10:12:19;;;;;;;7.90;6.25;;;;;;;1.09;100.00;101042.44;1816243;79;22821;-47
2022/12/26 10:15:27;;;;;;;8.40;6.17;;;;;;;1.11;98.88;101040.44;1790025;80;21060;-41
2022/12/26 10:18:27;;;;;;;8.15;6.03;;;;;;;1.13;98.91;101036.63;1686938;84;21493;-41
2022/12/26 10:21:14;;;;;;;6.95;5.45;;;;;;;1.16;98.98;101040.63;1717571;82;21529;-47
2022/12/26 10:23:45;;;;;;;8.15;5.72;;;;;;;1.17;97.75;101042.43;1718520;82;21032;-40
2022/12/26 10:26:31;;;;;;;7.83;5.55;;;;;;;1.13;97.06;101037.92;1744945;82;21079;-48
2022/12/26 10:29:18;;;;;;;9.25;6.37;;;;;;;1.11;96.88;101033.11;1718148;82;21035;-48
2022/12/26 10:31:59;;;;;;;7.00;5.67;;;;;;;1.16;96.04;101032.90;1745337;81;21194;-48
2022/12/26 10:34:40;;;;;;;7.20;6.08;;;;;;;1.18;95.42;101033.48;1731389;81;21048;-48
2022/12/26 10:37:29;;;;;;;6.42;4.87;;;;;;;1.22;95.51;101018.65;1755048;81;21013;-40
2022/12/26 10:40:37;;;;;;;7.60;6.05;;;;;;;1.27;95.72;101024.00;1767165;80;21064;-42
2022/12/26 10:43:22;;;;;;;9.28;5.92;;;;;;;1.29;95.69;101016.84;1730416;81;20992;-50
2022/12/26 10:46:16;;;;;;;8.63;6.17;;;;;;;1.35;96.09;101015.38;1733938;81;21107;-40
2022/12/26 10:52:27;;;;;;;9.85;7.20;;;;;;;1.58;94.80;101013.08;1597446;88;21627;-48
2022/12/26 10:55:01;;;;;;;19.73;11.73;;;;;;;1.59;92.70;101009.68;1673859;85;21155;-48
2022/12/26 10:57:41;;;;;;;21.12;12.95;;;;;;;1.59;92.52;101001.06;1610434;87;21027;-40
2022/12/26 11:00:25;;;;;;;21.10;6.35;;;;;;;1.65;93.13;101010.78;1621545;84;21117;-48
2022/12/26 11:03:16;;;;;;;6.10;4.70;;;;;;;1.68;92.13;101002.80;1667032;84;21423;-48
2022/12/26 11:05:54;;;;;;;6.97;5.25;;;;;;;1.67;91.32;101001.41;1647065;85;21061;-41
2022/12/26 11:08:35;;;;;;;7.58;5.45;;;;;;;1.62;90.53;100991.28;1650569;85;21097;-39
2022/12/26 11:11:25;;;;;;;7.20;5.00;;;;;;;1.53;90.77;100984.89;1597205;85;21043;-40
2022/12/26 11:14:15;;;;;;;8.38;6.28;;;;;;;1.48;91.16;100983.78;1645519;86;21146;-49
2022/12/26 11:16:56;;;;;;;7.40;5.78;;;;;;;1.45;91.73;100978.50;1630924;87;21880;-48
2022/12/26 11:19:53;;;;;;;6.50;5.47;;;;;;;1.47;92.23;100979.86;1628517;87;21170;-48
2022/12/26 11:22:39;;;;;;;7.90;5.37;;;;;;;1.56;92.83;100982.44;1642477;87;21589;-40
2022/12/26 11:25:33;;;;;;;7.97;5.30;;;;;;;1.64;92.47;100976.78;1637047;86;21249;-48
2022/12/26 11:28:21;;;;;;;7.67;5.53;;;;;;;1.64;92.67;100978.07;1659192;85;21096;-50
2022/12/26 11:30:50;;;;;;;8.20;5.80;;;;;;;1.68;93.09;100987.70;1680738;84;21605;-48
2022/12/26 11:37:03;;;;;;;8.73;5.95;;;;;;;1.80;92.56;100998.20;1687088;81;21109;-48
2022/12/26 11:39:35;;;;;;;7.72;5.67;;;;;;;1.92;92.18;101003.05;1688610;83;21124;-49
2022/12/26 11:42:29;;;;;;;8.28;5.05;;;;;;;2.03;91.54;101007.00;1657673;85;21072;-41
2022/12/26 11:45:16;;;;;;;6.92;5.12;;;;;;;2.15;90.17;101010.95;1639150;87;21167;-49
2022/12/26 11:47:53;;;;;;;5.60;4.72;;;;;;;2.27;89.90;101002.05;1632892;85;21595;-41
2022/12/26 11:50:28;;;;;;;6.58;5.05;;;;;;;2.45;89.47;101005.86;1593669;87;21619;-40
2022/12/26 11:53:17;;;;;;;9.63;5.30;;;;;;;2.51;88.59;101006.53;1633371;87;21046;-40
2022/12/26 11:55:58;;;;;;;9.13;6.10;;;;;;;2.50;88.82;101008.64;1629864;83;21179;-40
2022/12/26 11:58:35;;;;;;;7.55;5.67;;;;;;;2.49;88.65;101002.98;1612523;88;21045;-47
2022/12/26 12:01:19;;;;;;;9.63;5.80;;;;;;;2.38;88.14;101002.53;1625764;86;21064;-41
2022/12/26 12:03:50;;;;;;;7.80;6.25;;;;;;;2.24;88.36;100999.32;1606638;88;21527;-41
2022/12/26 12:06:38;;;;;;;12.78;5.35;;;;;;;2.12;88.57;100995.78;1605695;88;21090;-48
2022/12/26 12:09:17;;;;;;;6.62;5.60;;;;;;;2.02;88.70;100990.13;1598243;88;21156;-41
2022/12/26 12:12:13;;;;;;;6.95;5.55;;;;;;;1.94;88.90;100994.95;1598055;89;21093;-49
2022/12/26 12:15:06;;;;;;;8.85;6.08;;;;;;;1.84;89.68;100991.47;1583734;89;22573;-48
2022/12/26 12:18:20;;;;;;;8.50;5.97;;;;;;;1.75;90.77;100992.36;1556818;90;21162;-48
2022/12/26 12:21:23;;;;;;;8.93;6.45;;;;;;;1.59;91.20;100989.05;1556214;90;21193;-49
2022/12/26 12:24:14;;;;;;;;;;;;;;;1.44;91.90;100985.73;1543794;90;21095;-41
2022/12/26 12:26:58;;;;;;;11.03;7.50;;;;;;;1.34;92.86;100987.42;1577969;90;20136;-48
2022/12/26 12:32:46;;;;;;;9.20;6.87;;;;;;;1.23;93.81;100992.05;1631164;84;21164;-49
2022/12/26 12:35:39;;;;;;;11.88;7.50;;;;;;;1.19;93.87;100990.53;1639204;84;21586;-40
2022/12/26 12:38:59;;;;;;;13.65;7.78;;;;;;;1.19;94.43;100989.25;1624152;86;21056;-49
2022/12/26 12:42:03;;;;;;;13.35;7.28;;;;;;;1.28;95.00;100989.70;1562034;92;21166;-40
2022/12/26 12:44:53;;;;;;;11.33;7.17;;;;;;;1.42;94.43;100984.78;1558149;90;21119;-40
2022/12/26 12:48:03;;;;;;;9.55;6.95;;;;;;;1.53;94.34;100984.89;1553894;91;21143;-40
2022/12/26 12:51:03;;;;;;;8.20;6.05;;;;;;;1.64;94.50;100979.36;1533079;92;21443;-40
2022/12/26 12:54:10;;;;;;;10.43;7.10;;;;;;;1.80;94.48;100980.55;1529824;92;21193;-48
2022/12/26 12:57:12;;;;;;;10.35;6.55;;;;;;;1.93;93.96;100980.30;1559831;91;21099;-40
2022/12/26 13:00:22;;;;;;;11.78;6.80;;;;;;;2.03;92.75;100985.44;1571973;89;21588;-40
2022/12/26 13:03:20;;;;;;;8.25;6.00;;;;;;;2.11;91.62;100978.94;1514101;92;21616;-48
2022/12/26 13:06:15;;;;;;;10.13;6.78;;;;;;;2.12;91.36;100979.00;1515201;92;21189;-48
2022/12/26 13:09:22;;;;;;;11.83;6.83;;;;;;;2.28;90.83;100984.86;1520457;94;21642;-41
2022/12/26 13:12:08;;;;;;;11.70;6.60;;;;;;;2.33;88.98;100987.24;1528290;92;21135;-40
2022/12/26 13:15:04;;;;;;;9.05;6.35;;;;;;;2.18;88.77;100982.68;1529375;92;21159;-40
2022/12/26 13:18:12;;;;;;;8.48;5.78;;;;;;;2.20;88.79;100984.91;1532353;93;21076;-48
2022/12/26 13:21:01;;;;;;;9.05;5.70;;;;;;;2.32;88.78;100985.07;1493009;95;21967;-43
2022/12/26 13:26:31;;;;;;;8.65;6.20;;;;;;;2.49;88.24;100978.03;1511466;95;21824;-49
2022/12/26 13:29:18;;;;;;;;;;;;;;;2.39;87.28;100985.81;1493468;94;21138;-41
2022/12/26 13:32:03;;;;;;;8.08;5.03;;;;;;;2.11;87.22;100991.85;1493071;94;20436;-40
2022/12/26 13:34:38;;;;;;;9.03;5.65;;;;;;;1.75;88.13;100992.36;1484188;95;21621;-48
2022/12/26 13:37:46;;;;;;;9.53;6.58;;;;;;;1.46;89.04;100992.28;1475007;96;21157;-40
